Time;durP1;ratioP1;P1;durP2;ratioP2;P2;SDS_P1;SDS_P2;PMS_P1;PMS_P2;Temp;Humidity;BMP_temperature;BMP_pressure;BME280_temperature;BME280_humidity;BME280_pressure;Samples;Min_cycle;Max_cycle;Signal;HPM_P1;HPM_P2
2023/12/01 00:00:32;;;;;;;41.38;14.85;;;1.30;99.90;;;;;;5033689;28;20053;-48
2023/12/01 00:02:58;;;;;;;49.90;15.30;;;1.80;99.90;;;;;;5033196;28;20447;-46
2023/12/01 00:05:24;;;;;;;40.63;12.63;;;1.40;99.90;;;;;;5032956;28;20140;-48
2023/12/01 00:07:49;;;;;;;44.40;15.07;;;1.30;99.90;;;;;;5033356;28;20041;-49
2023/12/01 00:10:15;;;;;;;36.42;13.98;;;2.00;99.90;;;;;;5032509;28;20511;-50
2023/12/01 00:12:42;;;;;;;41.75;14.00;;;1.60;99.90;;;;;;5033049;28;20103;-49
2023/12/01 00:15:08;;;;;;;40.70;13.57;;;1.70;99.90;;;;;;5033167;28;20069;-48
2023/12/01 00:17:33;;;;;;;43.78;14.55;;;1.60;99.90;;;;;;5015315;28;20042;-48
2023/12/01 00:19:59;;;;;;;47.42;14.82;;;1.30;99.90;;;;;;5032792;28;20034;-49
2023/12/01 00:22:25;;;;;;;38.80;13.50;;;1.80;99.90;;;;;;5033082;28;20065;-49
2023/12/01 00:24:51;;;;;;;43.20;14.82;;;1.30;99.90;;;;;;5031654;28;20091;-49
2023/12/01 00:27:16;;;;;;;45.38;13.75;;;1.40;99.90;;;;;;5032707;28;20051;-49
2023/12/01 00:29:42;;;;;;;41.72;13.02;;;1.80;99.90;;;;;;5031775;28;20432;-49
2023/12/01 00:32:08;;;;;;;44.67;13.43;;;1.20;99.90;;;;;;5031302;28;20037;-51
2023/12/01 00:34:33;;;;;;;42.10;13.35;;;1.60;99.90;;;;;;5029451;28;20075;-50
2023/12/01 00:36:59;;;;;;;47.63;14.43;;;1.30;99.90;;;;;;5031435;28;20472;-50
2023/12/01 00:39:26;;;;;;;42.15;13.10;;;1.70;99.90;;;;;;5032761;28;20034;-51
2023/12/01 00:41:52;;;;;;;42.58;12.80;;;1.50;99.90;;;;;;5032488;28;20381;-47
2023/12/01 00:44:17;;;;;;;40.25;13.63;;;1.20;99.90;;;;;;5032860;28;20041;-51
2023/12/01 00:46:43;;;;;;;38.40;12.43;;;1.80;99.90;;;;;;5030375;28;20515;-48
2023/12/01 00:49:10;;;;;;;41.72;13.73;;;1.40;99.90;;;;;;5031022;28;20033;-48
2023/12/01 00:51:36;;;;;;;39.00;12.85;;;1.30;99.90;;;;;;5032311;28;20048;-46
2023/12/01 00:54:01;;;;;;;42.60;13.57;;;1.50;99.90;;;;;;5030872;28;20029;-50
2023/12/01 00:56:28;;;;;;;43.70;14.27;;;1.20;99.90;;;;;;5032174;28;20115;-49
2023/12/01 00:58:53;;;;;;;42.50;12.43;;;1.60;99.90;;;;;;5032165;28;20042;-49
2023/12/01 01:01:19;;;;;;;39.15;12.75;;;1.20;99.90;;;;;;5032185;28;20376;-49
2023/12/01 01:03:45;;;;;;;41.60;14.00;;;1.90;99.90;;;;;;5031910;28;20468;-50
2023/12/01 01:06:10;;;;;;;40.13;13.57;;;1.40;99.90;;;;;;5031651;28;20045;-50
2023/12/01 01:08:36;;;;;;;44.55;14.88;;;1.90;99.90;;;;;;5031624;28;20052;-48
2023/12/01 01:11:02;;;;;;;46.20;15.90;;;1.10;99.90;;;;;;5032083;28;20037;-51
2023/12/01 01:13:28;;;;;;;46.63;14.40;;;1.70;99.90;;;;;;5031810;28;20030;-47
2023/12/01 01:15:54;;;;;;;41.05;14.23;;;1.20;99.90;;;;;;5031965;28;20095;-49
2023/12/01 01:18:20;;;;;;;38.00;13.88;;;1.80;99.90;;;;;;5031757;28;20045;-51
2023/12/01 01:20:47;;;;;;;39.75;12.70;;;1.80;99.90;;;;;;5030211;28;20036;-48
2023/12/01 01:23:13;;;;;;;45.67;13.38;;;1.80;99.90;;;;;;5031583;28;20025;-49
2023/12/01 01:25:38;;;;;;;39.22;14.85;;;1.80;99.90;;;;;;5032001;28;20067;-49
2023/12/01 01:28:04;;;;;;;45.28;14.80;;;1.20;99.90;;;;;;5031807;28;20108;-50
2023/12/01 01:30:30;;;;;;;43.80;14.60;;;1.30;99.90;;;;;;5031102;28;20045;-45
2023/12/01 01:32:56;;;;;;;42.83;13.70;;;1.20;99.90;;;;;;5031477;28;20561;-50
2023/12/01 01:35:22;;;;;;;43.13;14.55;;;1.20;99.90;;;;;;5031365;28;20124;-50
2023/12/01 01:37:47;;;;;;;43.40;14.07;;;1.60;99.90;;;;;;5031752;28;20030;-49
2023/12/01 01:40:14;;;;;;;43.47;13.25;;;1.20;99.90;;;;;;5031584;28;20037;-50
2023/12/01 01:42:39;;;;;;;44.40;12.82;;;1.30;99.90;;;;;;5030873;28;20030;-54
2023/12/01 01:45:05;;;;;;;36.35;12.00;;;1.20;99.90;;;;;;5031143;28;20064;-47
2023/12/01 01:47:35;;;;;;;42.95;13.50;;;1.40;99.90;;;;;;5031216;28;20056;-50
2023/12/01 01:50:06;;;;;;;37.88;12.63;;;1.20;99.90;;;;;;5031252;28;20053;-48
2023/12/01 01:52:33;;;;;;;47.55;14.10;;;1.70;99.90;;;;;;5030892;28;20362;-48
2023/12/01 01:54:59;;;;;;;32.05;12.00;;;1.10;99.90;;;;;;5031363;28;20493;-49
2023/12/01 01:57:25;;;;;;;39.47;11.23;;;1.70;99.90;;;;;;5030988;28;20128;-49
2023/12/01 01:59:51;;;;;;;39.60;12.85;;;1.40;99.90;;;;;;5030832;28;20033;-49
2023/12/01 02:02:16;;;;;;;45.30;12.82;;;1.70;99.90;;;;;;5031319;28;20048;-48
2023/12/01 02:04:42;;;;;;;43.97;13.90;;;1.30;99.90;;;;;;5030770;28;20081;-48
2023/12/01 02:07:25;;;;;;;36.60;12.38;;;1.60;99.90;;;;;;5031025;28;20041;-50
2023/12/01 02:09:50;;;;;;;48.97;13.15;;;1.10;99.90;;;;;;5030736;28;20041;-49
2023/12/01 02:12:16;;;;;;;38.65;12.60;;;1.00;99.90;;;;;;5028587;28;20041;-48
2023/12/01 02:14:42;;;;;;;40.03;12.32;;;1.40;99.90;;;;;;5030350;28;20045;-47
2023/12/01 02:17:07;;;;;;;38.58;12.93;;;1.50;99.90;;;;;;5029584;28;20052;-48
2023/12/01 02:19:33;;;;;;;41.97;13.57;;;1.00;99.90;;;;;;5028413;28;20034;-52
2023/12/01 02:21:59;;;;;;;40.78;12.77;;;1.30;99.90;;;;;;5030454;28;20046;-48
2023/12/01 02:24:24;;;;;;;34.35;11.98;;;1.60;99.90;;;;;;5031076;28;20128;-49
2023/12/01 02:26:50;;;;;;;38.30;12.60;;;1.60;99.90;;;;;;5031042;28;20338;-48
2023/12/01 02:29:15;;;;;;;42.45;13.02;;;1.60;99.90;;;;;;5029540;28;20424;-48
2023/12/01 02:31:41;;;;;;;40.33;12.95;;;1.30;99.90;;;;;;5030720;28;20451;-47
2023/12/01 02:34:07;;;;;;;40.28;13.05;;;1.10;99.90;;;;;;5031038;28;20041;-48
2023/12/01 02:36:32;;;;;;;34.63;11.85;;;1.50;99.90;;;;;;5029815;28;20067;-49
2023/12/01 02:38:58;;;;;;;38.33;11.55;;;1.00;99.90;;;;;;5029523;28;20068;-49
2023/12/01 02:41:24;;;;;;;40.97;12.55;;;1.10;99.90;;;;;;5030402;28;20099;-49
2023/12/01 02:43:49;;;;;;;38.38;11.95;;;1.50;99.90;;;;;;5027860;28;20080;-47
2023/12/01 02:46:22;;;;;;;35.35;11.00;;;1.40;99.90;;;;;;5030846;28;20535;-50
2023/12/01 02:48:47;;;;;;;38.78;12.13;;;1.00;99.90;;;;;;5030718;28;20393;-52
2023/12/01 02:51:13;;;;;;;35.67;11.57;;;1.50;99.90;;;;;;5030565;28;20041;-48
2023/12/01 02:53:39;;;;;;;32.58;11.50;;;1.20;99.90;;;;;;5032765;28;20095;-49
2023/12/01 02:56:05;;;;;;;40.92;12.20;;;1.10;99.90;;;;;;5016130;28;20536;-50
2023/12/01 02:58:31;;;;;;;41.47;13.10;;;1.40;99.90;;;;;;5033398;28;20053;-50
2023/12/01 03:00:57;;;;;;;38.72;11.90;;;1.00;99.90;;;;;;5034375;28;20110;-48
2023/12/01 03:03:23;;;;;;;33.28;11.23;;;1.50;99.90;;;;;;5034780;28;20128;-50
2023/12/01 03:05:48;;;;;;;38.47;12.10;;;1.40;99.90;;;;;;5032372;28;20535;-50
2023/12/01 03:08:14;;;;;;;39.90;12.10;;;1.50;99.90;;;;;;5034272;28;20038;-50
2023/12/01 03:10:40;;;;;;;29.85;10.50;;;1.00;99.90;;;;;;5033456;28;20033;-49
2023/12/01 03:13:05;;;;;;;33.42;12.00;;;1.50;99.90;;;;;;5034388;28;20042;-50
2023/12/01 03:15:31;;;;;;;35.40;11.50;;;1.00;99.90;;;;;;5034044;28;20041;-50
2023/12/01 03:17:58;;;;;;;34.63;10.38;;;1.40;99.90;;;;;;5034112;28;20035;-45
2023/12/01 03:20:27;;;;;;;37.17;11.00;;;1.30;99.90;;;;;;5033613;28;20416;-49
2023/12/01 03:22:53;;;;;;;34.13;10.82;;;0.90;99.90;;;;;;5033315;28;20393;-48
2023/12/01 03:25:19;;;;;;;34.55;10.68;;;1.30;99.90;;;;;;5031890;28;20409;-48
2023/12/01 03:27:47;;;;;;;27.88;8.98;;;1.30;99.90;;;;;;5032449;28;20048;-49
2023/12/01 03:30:14;;;;;;;35.95;11.90;;;0.90;99.90;;;;;;5034262;28;20124;-47
2023/12/01 03:32:46;;;;;;;29.67;9.85;;;0.80;99.90;;;;;;5034062;28;20041;-49
2023/12/01 03:35:14;;;;;;;36.03;12.15;;;0.80;99.90;;;;;;5034111;28;20034;-47
2023/12/01 03:37:41;;;;;;;30.92;9.43;;;0.80;99.90;;;;;;5032415;28;20354;-52
2023/12/01 03:40:08;;;;;;;27.25;9.82;;;0.70;99.90;;;;;;5033618;28;20128;-50
2023/12/01 03:42:36;;;;;;;30.23;10.13;;;1.20;99.90;;;;;;5033842;28;20037;-47
2023/12/01 03:45:02;;;;;;;24.55;9.00;;;1.10;99.90;;;;;;5033678;28;20124;-50
2023/12/01 03:47:28;;;;;;;29.02;8.65;;;1.10;99.90;;;;;;5033701;28;20136;-50
2023/12/01 03:49:53;;;;;;;23.70;9.30;;;0.80;99.90;;;;;;5033670;28;20038;-51
2023/12/01 03:52:19;;;;;;;25.50;10.07;;;0.70;99.90;;;;;;5033344;28;20041;-50
2023/12/01 03:54:45;;;;;;;25.20;8.70;;;0.90;99.90;;;;;;5033521;28;20059;-48
2023/12/01 03:57:11;;;;;;;29.85;9.23;;;0.60;99.90;;;;;;5033756;28;20034;-47
2023/12/01 03:59:36;;;;;;;28.17;8.80;;;0.70;99.90;;;;;;5032051;28;20073;-50
2023/12/01 04:02:02;;;;;;;30.77;8.43;;;0.60;99.90;;;;;;5033801;28;20531;-49
2023/12/01 04:04:27;;;;;;;30.95;10.52;;;0.50;99.90;;;;;;5032387;28;20400;-48
2023/12/01 04:06:54;;;;;;;27.17;9.38;;;1.00;99.90;;;;;;5032694;28;20100;-50
2023/12/01 04:09:19;;;;;;;30.80;10.35;;;1.00;99.90;;;;;;5033272;28;20048;-48
2023/12/01 04:11:45;;;;;;;31.60;9.85;;;0.90;99.90;;;;;;5033180;28;20448;-50
2023/12/01 04:14:11;;;;;;;30.00;9.15;;;1.00;99.90;;;;;;5032912;28;20041;-49
2023/12/01 04:16:36;;;;;;;28.63;9.90;;;1.00;99.90;;;;;;5030413;28;20042;-49
2023/12/01 04:19:02;;;;;;;32.42;9.90;;;0.50;99.90;;;;;;5033131;28;20476;-48
2023/12/01 04:21:28;;;;;;;25.92;8.95;;;0.70;99.90;;;;;;5033123;28;20461;-50
2023/12/01 04:23:54;;;;;;;28.90;9.85;;;1.00;99.90;;;;;;5032648;28;20536;-48
2023/12/01 04:26:19;;;;;;;34.42;10.02;;;0.60;99.90;;;;;;5029530;28;20037;-49
2023/12/01 04:28:45;;;;;;;31.27;9.27;;;0.60;99.90;;;;;;5031789;28;20037;-51
2023/12/01 04:31:11;;;;;;;30.67;10.38;;;0.60;99.90;;;;;;5032964;28;20045;-51
2023/12/01 04:33:36;;;;;;;30.83;9.35;;;1.00;99.90;;;;;;5031884;28;20048;-51
2023/12/01 04:36:06;;;;;;;26.35;8.60;;;0.50;99.90;;;;;;5031707;28;20132;-51
2023/12/01 04:38:34;;;;;;;24.67;8.73;;;0.60;99.90;;;;;;5032152;28;20049;-50
2023/12/01 04:41:03;;;;;;;24.83;7.82;;;0.60;99.90;;;;;;5032635;28;20408;-50
2023/12/01 04:43:30;;;;;;;25.65;8.13;;;0.30;99.90;;;;;;5032163;28;20069;-50
2023/12/01 04:45:56;;;;;;;24.60;8.02;;;0.70;99.90;;;;;;5032428;28;20045;-46
2023/12/01 04:48:22;;;;;;;24.02;8.18;;;0.70;99.90;;;;;;5032544;28;20048;-50
2023/12/01 04:50:48;;;;;;;29.13;10.70;;;0.30;99.90;;;;;;5032616;28;20116;-52
2023/12/01 04:53:14;;;;;;;23.00;9.00;;;0.70;99.90;;;;;;5030873;28;20030;-50
2023/12/01 04:55:39;;;;;;;24.30;9.10;;;0.60;99.90;;;;;;5032612;28;20060;-47
2023/12/01 04:58:05;;;;;;;23.98;9.68;;;0.60;99.90;;;;;;5032175;28;20037;-50
2023/12/01 05:00:31;;;;;;;24.17;9.20;;;0.70;99.90;;;;;;5032310;28;20037;-47
2023/12/01 05:03:01;;;;;;;23.27;8.80;;;0.60;99.90;;;;;;5032073;28;20037;-49
2023/12/01 05:05:32;;;;;;;22.75;7.68;;;0.40;99.90;;;;;;5031735;28;20064;-47
2023/12/01 05:08:00;;;;;;;20.85;7.53;;;0.20;99.90;;;;;;5032319;28;20477;-50
2023/12/01 05:10:29;;;;;;;26.27;9.63;;;0.30;99.90;;;;;;5030413;28;20083;-48
2023/12/01 05:12:57;;;;;;;21.60;8.85;;;0.60;99.90;;;;;;5032243;28;20389;-51
2023/12/01 05:15:27;;;;;;;20.95;7.70;;;0.50;99.90;;;;;;5031353;28;20041;-49
2023/12/01 05:17:56;;;;;;;20.73;7.88;;;0.30;99.90;;;;;;5031526;28;20034;-49
2023/12/01 05:20:24;;;;;;;20.55;7.43;;;0.40;99.90;;;;;;5030271;28;20431;-47
2023/12/01 05:23:08;;;;;;;18.23;7.18;;;0.40;99.90;;;;;;5031382;28;20053;-50
2023/12/01 05:25:36;;;;;;;21.20;6.90;;;0.70;99.90;;;;;;5030879;28;20511;-48
2023/12/01 05:28:07;;;;;;;19.52;7.70;;;0.40;99.90;;;;;;5031506;28;20481;-51
2023/12/01 05:30:36;;;;;;;18.73;6.80;;;0.30;99.90;;;;;;5031532;28;20045;-50
2023/12/01 05:33:04;;;;;;;23.38;7.85;;;0.40;99.90;;;;;;5031713;28;20037;-49
2023/12/01 05:35:31;;;;;;;22.42;8.02;;;0.30;99.90;;;;;;5031576;28;20038;-49
2023/12/01 05:37:58;;;;;;;19.20;7.82;;;0.30;99.90;;;;;;5031529;28;20041;-48
2023/12/01 05:40:24;;;;;;;23.17;9.07;;;0.10;99.90;;;;;;5031649;28;20045;-49
2023/12/01 05:42:52;;;;;;;20.63;7.20;;;0.00;99.90;;;;;;5031430;28;20050;-47
2023/12/01 05:45:21;;;;;;;26.17;9.15;;;0.10;99.90;;;;;;5031794;28;20049;-49
2023/12/01 05:47:48;;;;;;;23.70;8.18;;;-0.10;99.90;;;;;;5031103;28;20053;-50
2023/12/01 05:50:20;;;;;;;19.77;6.47;;;0.10;99.90;;;;;;5031453;28;20037;-51
2023/12/01 05:52:46;;;;;;;21.15;7.80;;;-0.20;99.90;;;;;;5031300;28;20468;-51
2023/12/01 05:55:14;;;;;;;22.95;7.00;;;-0.20;99.90;;;;;;5030009;28;20184;-49
2023/12/01 05:57:44;;;;;;;27.40;8.68;;;-0.40;99.90;;;;;;5031125;28;20041;-50
2023/12/01 06:00:17;;;;;;;24.05;8.38;;;0.00;99.90;;;;;;5031298;28;20053;-48
2023/12/01 06:02:47;;;;;;;26.65;9.00;;;-0.30;99.90;;;;;;5031282;28;20030;-49
2023/12/01 06:05:18;;;;;;;23.40;8.63;;;-0.20;99.90;;;;;;5031114;28;20034;-50
2023/12/01 06:07:54;;;;;;;20.10;8.63;;;-0.50;99.90;;;;;;5031118;28;20492;-49
2023/12/01 06:10:20;;;;;;;25.35;8.05;;;-0.30;99.90;;;;;;5031417;28;20093;-52
2023/12/01 06:12:46;;;;;;;26.60;9.13;;;-0.40;99.90;;;;;;5030938;28;20086;-52
2023/12/01 06:15:13;;;;;;;23.52;8.15;;;-0.80;99.90;;;;;;5031003;28;20476;-50
2023/12/01 06:17:41;;;;;;;26.42;9.32;;;-0.70;99.90;;;;;;5031205;28;20041;-49
2023/12/01 06:20:17;;;;;;;22.80;8.77;;;-0.40;99.90;;;;;;5027184;28;20057;-47
2023/12/01 06:22:54;;;;;;;24.02;8.40;;;-0.90;99.90;;;;;;5030379;28;20037;-49
2023/12/01 06:25:21;;;;;;;24.05;8.93;;;-0.50;99.90;;;;;;5030955;28;20037;-49
2023/12/01 06:27:47;;;;;;;29.40;9.27;;;-0.80;99.90;;;;;;5030646;28;20374;-49
2023/12/01 06:30:14;;;;;;;26.85;9.32;;;-0.80;99.90;;;;;;5031004;28;20052;-48
2023/12/01 06:32:45;;;;;;;28.52;9.32;;;-0.80;99.90;;;;;;5030741;28;20041;-51
2023/12/01 06:35:13;;;;;;;24.40;9.02;;;-0.60;99.90;;;;;;5030628;28;20052;-50
2023/12/01 06:37:39;;;;;;;28.90;8.85;;;-0.90;99.90;;;;;;5030972;28;20108;-52
2023/12/01 06:40:12;;;;;;;26.00;9.20;;;-0.90;99.90;;;;;;5030603;28;20489;-49
2023/12/01 06:42:58;;;;;;;25.65;9.10;;;-0.50;99.90;;;;;;5030668;28;20045;-50
2023/12/01 06:45:28;;;;;;;26.00;8.73;;;-0.90;99.90;;;;;;5028731;28;20053;-48
2023/12/01 06:47:55;;;;;;;27.55;10.30;;;-1.00;99.90;;;;;;5030632;28;20068;-53
2023/12/01 06:50:24;;;;;;;29.20;9.18;;;-1.00;99.90;;;;;;5030877;28;20037;-51
2023/12/01 06:52:59;;;;;;;28.70;9.80;;;-1.00;99.90;;;;;;5030091;28;20033;-51
2023/12/01 06:55:24;;;;;;;33.83;10.73;;;-0.80;99.90;;;;;;5030797;28;20530;-50
2023/12/01 06:57:50;;;;;;;29.98;10.40;;;-0.70;99.90;;;;;;5012393;28;20041;-49
2023/12/01 07:00:33;;;;;;;32.80;9.48;;;-1.00;99.90;;;;;;5030554;28;20041;-53
2023/12/01 07:03:07;;;;;;;32.67;10.20;;;-1.10;99.90;;;;;;5030359;28;20043;-50
2023/12/01 07:05:35;;;;;;;25.77;9.27;;;-0.80;99.90;;;;;;5029797;28;20061;-51
2023/12/01 07:08:03;;;;;;;28.23;8.55;;;-0.90;99.90;;;;;;5030446;28;20138;-49
2023/12/01 07:10:32;;;;;;;29.58;9.25;;;-0.60;99.90;;;;;;5030350;28;20084;-51
2023/12/01 07:12:59;;;;;;;29.95;10.80;;;-0.70;99.90;;;;;;5029437;28;20034;-52
2023/12/01 07:15:25;;;;;;;32.05;9.00;;;-0.70;99.90;;;;;;5030466;28;20371;-50
2023/12/01 07:17:52;;;;;;;28.30;9.80;;;-1.00;99.90;;;;;;5030096;28;20033;-52
2023/12/01 07:20:19;;;;;;;26.08;8.70;;;-0.90;99.90;;;;;;5030481;28;20115;-51
2023/12/01 07:22:49;;;;;;;24.13;8.38;;;-1.20;99.90;;;;;;5029960;28;20037;-51
2023/12/01 07:25:22;;;;;;;27.90;9.80;;;-1.20;99.90;;;;;;5030326;28;20115;-52
2023/12/01 07:27:59;;;;;;;28.48;9.13;;;-1.20;99.90;;;;;;5027917;28;20053;-50
2023/12/01 07:30:27;;;;;;;27.13;9.43;;;-1.10;99.90;;;;;;5030045;28;20037;-49
2023/12/01 07:32:53;;;;;;;31.10;10.55;;;-1.20;99.90;;;;;;5028303;28;20147;-50
2023/12/01 07:35:19;;;;;;;26.17;9.05;;;-1.10;99.90;;;;;;5028100;28;20068;-49
2023/12/01 07:37:47;;;;;;;28.15;9.55;;;-1.10;99.90;;;;;;5027021;28;20037;-49
2023/12/01 07:40:21;;;;;;;24.38;8.40;;;-1.20;99.90;;;;;;5031219;28;20037;-51
2023/12/01 07:42:48;;;;;;;25.95;8.85;;;-0.90;99.90;;;;;;5033750;28;20583;-49
2023/12/01 07:45:17;;;;;;;30.52;9.98;;;-1.30;99.90;;;;;;5033904;28;20135;-51
2023/12/01 07:47:47;;;;;;;27.48;9.27;;;-1.30;99.90;;;;;;5032752;28;20095;-49
2023/12/01 07:50:16;;;;;;;28.17;9.73;;;-1.30;99.90;;;;;;5033679;28;20048;-52
2023/12/01 07:52:43;;;;;;;26.35;9.75;;;-0.90;99.90;;;;;;5033359;28;20077;-50
2023/12/01 07:55:09;;;;;;;27.92;9.90;;;-1.30;99.90;;;;;;5033893;28;20034;-51
2023/12/01 07:57:35;;;;;;;27.98;9.35;;;-0.90;99.90;;;;;;5033167;28;20111;-49
2023/12/01 08:00:02;;;;;;;27.02;9.32;;;-0.90;99.90;;;;;;5033600;28;20496;-51
2023/12/01 08:02:28;;;;;;;27.45;10.85;;;-0.90;99.90;;;;;;5033505;28;20041;-50
2023/12/01 08:04:53;;;;;;;33.13;10.65;;;-1.30;99.90;;;;;;5033617;28;20056;-48
2023/12/01 08:07:19;;;;;;;32.58;10.00;;;-0.90;99.90;;;;;;5033039;28;20107;-48
2023/12/01 08:09:45;;;;;;;33.63;11.35;;;-0.90;99.90;;;;;;5033205;28;20096;-53
2023/12/01 08:12:10;;;;;;;26.27;8.50;;;-0.90;99.90;;;;;;5033588;28;20095;-49
2023/12/01 08:14:36;;;;;;;28.17;9.80;;;-1.00;99.90;;;;;;5032566;28;20448;-48
2023/12/01 08:17:02;;;;;;;26.98;9.60;;;-1.30;99.90;;;;;;5033189;28;20039;-48
2023/12/01 08:19:28;;;;;;;35.13;9.95;;;-1.00;99.90;;;;;;5033130;28;20026;-50
2023/12/01 08:21:53;;;;;;;28.77;8.27;;;-1.30;99.90;;;;;;5033084;28;20108;-48
2023/12/01 08:24:20;;;;;;;27.02;9.43;;;-0.90;99.90;;;;;;5016097;28;20420;-49
2023/12/01 08:26:47;;;;;;;24.85;8.95;;;-1.20;99.90;;;;;;5024326;28;20095;-49
2023/12/01 08:29:13;;;;;;;31.27;9.55;;;-1.10;99.90;;;;;;5023754;28;20061;-50
2023/12/01 08:31:39;;;;;;;25.63;8.23;;;-1.10;99.90;;;;;;5038937;28;20076;-52
2023/12/01 08:34:08;;;;;;;24.83;8.90;;;-1.10;99.90;;;;;;5023167;28;20049;-49
2023/12/01 08:36:36;;;;;;;29.58;9.82;;;-0.90;99.90;;;;;;5025497;28;20033;-48
2023/12/01 08:39:04;;;;;;;33.38;9.52;;;-0.90;99.90;;;;;;5025035;28;20136;-50
2023/12/01 08:41:30;;;;;;;27.20;9.40;;;-0.90;99.90;;;;;;5023317;28;20148;-50
2023/12/01 08:43:56;;;;;;;24.90;8.95;;;-1.20;99.90;;;;;;5025253;28;20052;-46
2023/12/01 08:46:21;;;;;;;30.15;9.95;;;-0.80;99.90;;;;;;5025743;28;20452;-49
2023/12/01 08:48:47;;;;;;;39.83;11.55;;;-1.20;99.90;;;;;;5025603;28;20516;-47
2023/12/01 08:51:13;;;;;;;29.23;10.52;;;-1.00;99.90;;;;;;5025787;28;20053;-51
2023/12/01 08:53:38;;;;;;;31.10;9.63;;;-1.00;99.90;;;;;;5022919;28;20469;-52
2023/12/01 08:56:05;;;;;;;30.95;9.73;;;-1.10;99.90;;;;;;5025139;28;20069;-49
2023/12/01 08:58:30;;;;;;;25.30;9.40;;;-1.10;99.90;;;;;;5025333;28;20045;-49
2023/12/01 09:00:56;;;;;;;32.40;9.70;;;-0.90;99.90;;;;;;5024745;28;20053;-49
2023/12/01 09:03:21;;;;;;;35.17;9.48;;;-1.10;99.90;;;;;;5025223;28;20056;-49
2023/12/01 09:05:48;;;;;;;29.38;10.40;;;-0.80;99.90;;;;;;5025233;28;20380;-52
2023/12/01 09:08:15;;;;;;;28.83;10.18;;;-0.90;99.90;;;;;;5025026;28;20123;-51
2023/12/01 09:10:41;;;;;;;30.05;9.55;;;-0.70;99.90;;;;;;5024676;28;20519;-48
2023/12/01 09:13:08;;;;;;;35.25;9.45;;;-0.70;99.90;;;;;;5024554;28;20025;-51
2023/12/01 09:15:34;;;;;;;36.83;10.70;;;-0.80;99.90;;;;;;5024460;28;20046;-52
2023/12/01 09:17:59;;;;;;;26.52;9.43;;;-0.90;99.90;;;;;;5022120;28;20052;-51
2023/12/01 09:20:25;;;;;;;28.15;10.30;;;-0.60;99.90;;;;;;5023414;28;20049;-51
2023/12/01 09:22:51;;;;;;;35.15;10.75;;;-0.90;99.90;;;;;;5022923;28;20397;-53
2023/12/01 09:25:17;;;;;;;33.20;10.27;;;-0.80;99.90;;;;;;5022824;28;20037;-50
2023/12/01 09:27:43;;;;;;;31.50;9.93;;;-0.70;99.90;;;;;;5023736;28;20049;-50
2023/12/01 09:30:13;;;;;;;30.98;10.52;;;-0.70;99.90;;;;;;5023519;28;20049;-52
2023/12/01 09:32:43;;;;;;;35.75;10.93;;;-0.60;99.90;;;;;;5020107;28;20120;-51
2023/12/01 09:35:09;;;;;;;30.77;9.70;;;-0.40;99.90;;;;;;5020799;28;20129;-49
2023/12/01 09:37:34;;;;;;;38.22;10.98;;;-0.30;99.90;;;;;;5024124;28;20163;-50
2023/12/01 09:40:03;;;;;;;28.55;9.95;;;-0.30;99.90;;;;;;5023748;28;20037;-50
2023/12/01 09:42:32;;;;;;;34.80;10.65;;;-0.10;99.90;;;;;;5020721;28;20038;-50
2023/12/01 09:45:00;;;;;;;37.92;12.15;;;-0.20;99.90;;;;;;5023717;28;20102;-50
2023/12/01 09:47:32;;;;;;;36.42;11.18;;;-0.10;99.90;;;;;;5022317;28;20047;-50
2023/12/01 09:49:58;;;;;;;32.67;10.45;;;-0.20;99.90;;;;;;5022723;28;20200;-51
2023/12/01 09:52:23;;;;;;;35.60;10.52;;;-0.20;99.90;;;;;;5023262;28;20116;-50
2023/12/01 09:54:49;;;;;;;34.03;11.63;;;0.20;99.90;;;;;;5024244;28;20484;-49
2023/12/01 09:57:16;;;;;;;36.78;11.55;;;0.10;99.90;;;;;;5023328;28;20033;-51
2023/12/01 09:59:45;;;;;;;36.83;10.73;;;0.00;99.90;;;;;;5022269;28;20095;-50
2023/12/01 10:02:11;;;;;;;32.78;10.82;;;0.40;99.90;;;;;;5021363;28;20144;-50
2023/12/01 10:04:37;;;;;;;27.23;9.90;;;0.80;99.90;;;;;;5023567;28;20120;-50
2023/12/01 10:07:03;;;;;;;28.02;9.65;;;1.00;99.90;;;;;;5023110;28;20049;-52
2023/12/01 10:09:33;;;;;;;26.83;9.77;;;1.60;99.90;;;;;;5021528;28;20037;-48
2023/12/01 10:12:10;;;;;;;28.63;10.63;;;1.90;99.90;;;;;;5023153;28;20049;-48
2023/12/01 10:14:37;;;;;;;29.42;10.30;;;2.10;99.90;;;;;;5021748;28;20069;-51
2023/12/01 10:17:04;;;;;;;29.65;9.88;;;2.40;99.90;;;;;;5021425;28;20465;-52
2023/12/01 10:19:42;;;;;;;34.47;11.55;;;2.60;99.90;;;;;;5019819;28;20169;-49
2023/12/01 10:22:09;;;;;;;26.55;9.82;;;2.80;99.90;;;;;;5023636;28;20465;-48
2023/12/01 10:24:35;;;;;;;30.45;10.23;;;3.00;99.90;;;;;;5021774;28;20061;-50
2023/12/01 10:27:04;;;;;;;32.97;11.80;;;3.10;99.90;;;;;;5023171;28;20450;-49
2023/12/01 10:29:34;;;;;;;31.00;10.63;;;3.20;99.90;;;;;;5023479;28;20604;-50
2023/12/01 10:32:00;;;;;;;27.40;10.70;;;3.40;99.90;;;;;;5023137;28;20492;-49
2023/12/01 10:34:26;;;;;;;29.92;10.15;;;3.30;99.90;;;;;;5023332;28;20068;-52
2023/12/01 10:36:53;;;;;;;28.33;10.57;;;3.30;99.90;;;;;;5023023;28;20069;-52
2023/12/01 10:39:29;;;;;;;30.83;10.85;;;3.50;99.90;;;;;;5021299;28;20499;-50
2023/12/01 10:41:58;;;;;;;26.45;10.15;;;3.60;99.90;;;;;;5022926;28;20462;-49
2023/12/01 10:44:26;;;;;;;26.40;9.48;;;3.70;99.90;;;;;;5022411;28;20060;-46
2023/12/01 10:46:53;;;;;;;27.60;10.35;;;3.80;99.90;;;;;;5022349;28;20029;-49
2023/12/01 10:49:20;;;;;;;24.88;10.25;;;3.40;99.90;;;;;;5022748;28;20440;-49
2023/12/01 10:51:50;;;;;;;32.38;10.82;;;3.30;99.90;;;;;;5022641;28;20057;-50
2023/12/01 10:54:16;;;;;;;27.10;9.10;;;3.00;99.90;;;;;;5022962;28;20037;-47
2023/12/01 10:56:55;;;;;;;23.92;8.60;;;2.80;99.90;;;;;;5023023;28;20045;-49
2023/12/01 10:59:23;;;;;;;26.65;9.00;;;2.60;99.90;;;;;;5022956;28;20041;-50
2023/12/01 11:01:50;;;;;;;24.05;8.55;;;2.60;99.90;;;;;;5020454;28;20103;-51
2023/12/01 11:04:32;;;;;;;22.80;7.65;;;2.70;99.90;;;;;;5022943;28;20869;-49
2023/12/01 11:06:58;;;;;;;22.98;8.57;;;2.60;99.90;;;;;;5022667;28;20061;-49
2023/12/01 11:10:02;;;;;;;19.05;7.55;;;2.60;99.90;;;;;;5022172;28;20095;-51
2023/12/01 11:12:52;;;;;;;21.08;8.55;;;2.50;99.90;;;;;;5021553;28;20049;-50
2023/12/01 11:15:31;;;;;;;23.55;8.57;;;2.70;99.90;;;;;;5024632;28;20574;-53
2023/12/01 11:17:56;;;;;;;21.83;9.27;;;2.80;99.90;;;;;;5025441;28;20041;-51
2023/12/01 11:20:32;;;;;;;21.77;9.23;;;3.40;99.90;;;;;;5024276;28;20087;-51
2023/12/01 11:23:04;;;;;;;25.25;8.98;;;3.50;99.90;;;;;;5024180;28;20043;-53
2023/12/01 11:25:43;;;;;;;19.15;7.82;;;3.90;99.90;;;;;;5022975;28;20076;-52
2023/12/01 11:28:42;;;;;;;21.50;9.13;;;4.10;99.90;;;;;;5009930;28;20045;-53
2023/12/01 11:31:32;;;;;;;21.38;8.20;;;4.20;99.90;;;;;;5019375;28;20044;-49
2023/12/01 11:33:58;;;;;;;19.05;8.07;;;4.40;99.90;;;;;;5025789;28;20112;-50
2023/12/01 11:36:29;;;;;;;16.42;7.20;;;4.50;99.90;;;;;;5026314;28;20113;-51
2023/12/01 11:41:41;;;;;;;19.65;7.28;;;4.40;99.90;;;;;;5025346;28;20080;-51
2023/12/01 11:44:29;;;;;;;16.55;7.20;;;4.40;99.90;;;;;;5024930;28;20021;-50
2023/12/01 11:47:00;;;;;;;17.63;7.30;;;4.30;99.90;;;;;;5025312;28;20041;-52
2023/12/01 11:49:30;;;;;;;18.55;6.53;;;4.20;99.90;;;;;;5024594;28;20484;-50
2023/12/01 11:51:57;;;;;;;20.10;8.52;;;4.30;99.90;;;;;;5025775;28;20045;-49
2023/12/01 11:54:23;;;;;;;23.60;7.72;;;4.30;99.90;;;;;;5025200;28;20129;-48
2023/12/01 11:56:53;;;;;;;18.23;7.82;;;4.30;99.90;;;;;;5027094;28;20385;-48
2023/12/01 11:59:19;;;;;;;18.83;8.43;;;4.30;99.90;;;;;;5026270;28;20041;-49
2023/12/01 12:01:46;;;;;;;16.05;7.72;;;4.20;99.90;;;;;;5020005;28;20547;-47
2023/12/01 12:04:16;;;;;;;18.33;8.25;;;4.10;99.90;;;;;;5025703;28;20022;-49
2023/12/01 12:06:45;;;;;;;17.52;7.70;;;4.00;99.90;;;;;;5026004;28;20081;-50
2023/12/01 12:09:17;;;;;;;13.95;6.72;;;3.90;99.90;;;;;;5026801;28;20471;-50
2023/12/01 12:11:45;;;;;;;16.05;7.05;;;3.90;99.90;;;;;;5026166;28;20067;-52
2023/12/01 12:14:15;;;;;;;15.60;6.95;;;4.40;99.90;;;;;;5020626;28;20037;-49
2023/12/01 12:16:41;;;;;;;17.27;7.82;;;4.00;99.90;;;;;;5018296;28;20115;-51
2023/12/01 12:19:07;;;;;;;17.60;7.18;;;4.00;99.90;;;;;;5021556;28;20037;-51
2023/12/01 12:21:35;;;;;;;17.45;7.38;;;4.10;99.90;;;;;;5020536;28;20048;-54
2023/12/01 12:24:00;;;;;;;15.85;7.38;;;4.20;99.90;;;;;;5020012;28;20041;-51
2023/12/01 12:26:28;;;;;;;15.85;7.50;;;4.20;99.90;;;;;;5019485;28;20187;-51
2023/12/01 12:28:55;;;;;;;17.73;8.10;;;4.30;99.90;;;;;;5017341;28;20073;-51
2023/12/01 12:31:25;;;;;;;18.35;8.13;;;4.30;99.90;;;;;;5019544;28;20036;-52
2023/12/01 12:33:58;;;;;;;19.17;8.77;;;4.10;99.90;;;;;;5016008;28;20064;-50
2023/12/01 12:36:29;;;;;;;16.63;8.07;;;3.90;99.90;;;;;;5019744;28;20546;-50
2023/12/01 12:38:58;;;;;;;16.13;7.70;;;4.10;99.90;;;;;;5019041;28;20083;-51
2023/12/01 12:41:28;;;;;;;16.48;7.78;;;4.60;99.90;;;;;;5021057;28;20033;-50
2023/12/01 12:43:57;;;;;;;17.13;7.85;;;4.40;99.90;;;;;;5020068;28;20037;-47